Time;durP1;ratioP1;P1;durP2;ratioP2;P2;SDS_P1;SDS_P2;PMS_P1;PMS_P2;Temp;Humidity;BMP_temperature;BMP_pressure;BME280_temperature;BME280_humidity;BME280_pressure;Samples;Min_cycle;Max_cycle;Signal;HPM_P1;HPM_P2
2024/04/12 00:01:48;;;;;;;27.10;17.33;;;13.10;99.90;;;;;;5425345;26;20344;-84
2024/04/12 00:04:20;;;;;;;32.65;19.80;;;13.10;99.90;;;;;;5394856;26;19995;-84
2024/04/12 00:06:49;;;;;;;34.60;20.27;;;13.10;99.90;;;;;;5392949;26;20461;-84
2024/04/12 00:09:19;;;;;;;31.55;18.65;;;13.10;99.90;;;;;;5402036;26;20337;-85
2024/04/12 00:11:54;;;;;;;31.33;19.25;;;13.10;99.90;;;;;;5431196;26;19999;-84
2024/04/12 00:14:24;;;;;;;25.80;17.10;;;13.10;99.90;;;;;;5401253;26;20949;-85
2024/04/12 00:16:52;;;;;;;36.85;20.95;;;13.10;99.90;;;;;;5427441;26;19996;-84
2024/04/12 00:19:23;;;;;;;29.13;19.85;;;13.10;99.90;;;;;;5421279;26;20461;-85
2024/04/12 00:21:52;;;;;;;32.58;20.23;;;13.10;99.90;;;;;;5418610;26;20053;-84
2024/04/12 00:24:29;;;;;;;34.42;20.77;;;13.10;99.90;;;;;;5432531;26;20034;-84
2024/04/12 00:26:58;;;;;;;35.13;21.58;;;13.10;99.90;;;;;;5422975;26;20007;-83
2024/04/12 00:29:26;;;;;;;32.78;21.15;;;13.10;99.90;;;;;;5368443;26;20552;-84
2024/04/12 00:32:05;;;;;;;36.00;23.05;;;13.10;99.90;;;;;;5400875;26;20028;-84
2024/04/12 00:34:39;;;;;;;36.92;23.75;;;13.10;99.90;;;;;;5401644;26;20804;-84
2024/04/12 00:37:08;;;;;;;42.72;25.15;;;13.10;99.90;;;;;;5439258;26;20454;-86
2024/04/12 00:39:39;;;;;;;38.42;24.55;;;13.10;99.90;;;;;;5427576;26;20035;-84
2024/04/12 00:42:07;;;;;;;37.63;24.27;;;13.00;99.90;;;;;;5432970;26;20021;-84
2024/04/12 00:44:39;;;;;;;40.72;26.27;;;13.10;99.90;;;;;;5390964;26;19995;-85
2024/04/12 00:47:15;;;;;;;42.95;27.33;;;13.20;99.90;;;;;;5424893;26;20030;-84
2024/04/12 00:49:50;;;;;;;40.95;27.30;;;13.20;99.90;;;;;;5433473;26;20028;-84
2024/04/12 00:52:23;;;;;;;47.15;28.38;;;13.10;99.90;;;;;;5429662;26;19999;-83
2024/04/12 00:55:07;;;;;;;48.90;30.00;;;13.10;99.90;;;;;;5417705;26;19998;-84
2024/04/12 00:57:36;;;;;;;42.58;27.52;;;13.20;99.90;;;;;;5401652;26;20498;-84
2024/04/12 01:00:08;;;;;;;49.33;30.92;;;13.20;99.90;;;;;;5423347;26;20004;-84
2024/04/12 01:02:40;;;;;;;48.83;30.27;;;13.20;99.90;;;;;;5396990;26;20003;-84
2024/04/12 01:05:11;;;;;;;47.67;31.13;;;13.20;99.90;;;;;;5424790;26;20035;-84
2024/04/12 01:07:38;;;;;;;56.42;34.53;;;13.20;99.90;;;;;;5425554;26;20046;-84
2024/04/12 01:10:11;;;;;;;59.25;33.95;;;13.20;99.90;;;;;;5343306;26;20038;-84
2024/04/12 01:12:39;;;;;;;48.13;32.10;;;13.20;99.90;;;;;;5422677;26;20466;-83
2024/04/12 01:15:07;;;;;;;57.17;32.97;;;13.20;99.90;;;;;;5392952;26;20021;-84
2024/04/12 01:17:38;;;;;;;65.55;36.65;;;13.20;99.90;;;;;;5423676;26;20014;-84
2024/04/12 01:20:05;;;;;;;58.50;34.80;;;13.30;99.90;;;;;;5422185;26;20024;-83
2024/04/12 01:22:35;;;;;;;55.72;34.53;;;13.30;99.90;;;;;;5436076;26;20017;-83
2024/04/12 01:25:05;;;;;;;58.90;35.13;;;13.30;99.90;;;;;;5428962;26;19995;-84
2024/04/12 01:27:34;;;;;;;67.72;37.65;;;13.30;99.90;;;;;;5414163;26;20479;-84
2024/04/12 01:30:05;;;;;;;68.63;39.25;;;13.30;99.90;;;;;;5405648;26;20021;-84
2024/04/12 01:32:33;;;;;;;66.72;38.85;;;13.30;99.90;;;;;;5435807;26;20013;-84
2024/04/12 01:35:03;;;;;;;60.17;37.97;;;13.30;99.90;;;;;;5393796;26;20003;-84
2024/04/12 01:37:31;;;;;;;64.53;39.47;;;13.30;99.90;;;;;;5387264;26;20003;-83
2024/04/12 01:40:02;;;;;;;56.60;36.53;;;13.30;99.90;;;;;;5426084;26;20470;-84
2024/04/12 01:42:30;;;;;;;61.05;38.72;;;13.30;99.90;;;;;;5394417;26;20018;-84
2024/04/12 01:45:13;;;;;;;68.28;41.22;;;13.30;99.90;;;;;;5436688;26;20017;-85
2024/04/12 01:47:45;;;;;;;62.22;40.95;;;13.40;99.90;;;;;;5403802;26;20014;-85
2024/04/12 01:50:13;;;;;;;61.55;39.45;;;13.40;99.90;;;;;;5426639;26;20051;-84
2024/04/12 01:52:50;;;;;;;68.78;42.83;;;13.40;99.90;;;;;;5422261;26;20021;-84
2024/04/12 01:55:20;;;;;;;62.63;40.22;;;13.40;99.90;;;;;;5429117;26;20003;-85
2024/04/12 01:57:51;;;;;;;67.65;42.25;;;13.40;99.90;;;;;;5395174;26;20002;-83
2024/04/12 02:00:23;;;;;;;62.30;41.00;;;13.40;99.90;;;;;;5425624;26;20031;-85
2024/04/12 02:02:53;;;;;;;61.53;39.58;;;13.40;99.90;;;;;;5392207;26;20008;-86
2024/04/12 02:05:29;;;;;;;54.85;37.65;;;13.40;99.90;;;;;;5441586;26;20013;-83
2024/04/12 02:07:56;;;;;;;59.47;39.67;;;13.40;99.90;;;;;;5412658;26;20490;-84
2024/04/12 02:10:23;;;;;;;49.80;34.17;;;13.40;99.90;;;;;;5411616;26;19996;-85
2024/04/12 02:12:54;;;;;;;43.92;33.42;;;13.40;99.90;;;;;;5442655;26;20356;-83
2024/04/12 02:15:25;;;;;;;39.88;31.52;;;13.40;99.90;;;;;;5397206;26;20003;-84
2024/04/12 02:17:58;;;;;;;41.72;33.03;;;13.40;99.90;;;;;;5406758;26;20009;-86
2024/04/12 02:20:34;;;;;;;39.85;30.92;;;13.40;99.90;;;;;;5425406;26;20028;-84
2024/04/12 02:23:06;;;;;;;38.97;31.23;;;13.40;99.90;;;;;;5399983;26;20341;-84
2024/04/12 02:25:37;;;;;;;39.28;30.20;;;13.40;99.90;;;;;;5436005;26;20097;-84
2024/04/12 02:28:07;;;;;;;37.78;29.15;;;13.40;99.90;;;;;;5433222;26;20034;-83
2024/04/12 02:30:43;;;;;;;38.72;30.00;;;13.40;99.90;;;;;;5391040;26;19995;-84
2024/04/12 02:33:17;;;;;;;33.33;27.27;;;13.40;99.90;;;;;;5395164;26;20468;-86
2024/04/12 02:35:45;;;;;;;37.38;29.55;;;13.40;99.90;;;;;;5420147;26;20043;-84
2024/04/12 02:38:21;;;;;;;34.42;28.42;;;13.40;99.90;;;;;;5402497;26;20006;-85
2024/04/12 02:40:50;;;;;;;31.85;27.63;;;13.50;99.90;;;;;;5392037;26;20374;-83
2024/04/12 02:43:18;;;;;;;32.63;28.17;;;13.50;99.90;;;;;;5398708;26;20860;-85
2024/04/12 02:45:48;;;;;;;29.50;26.05;;;13.50;99.90;;;;;;5401150;26;20017;-84
2024/04/12 02:48:22;;;;;;;28.48;25.40;;;13.50;99.90;;;;;;5407629;26;19995;-83
2024/04/12 02:50:54;;;;;;;29.17;24.83;;;13.50;99.90;;;;;;5425569;26;20023;-84
2024/04/12 02:53:23;;;;;;;30.38;25.15;;;13.50;99.90;;;;;;5417973;26;20470;-83
2024/04/12 02:56:14;;;;;;;31.02;26.35;;;13.50;99.90;;;;;;5432556;26;20038;-84
2024/04/12 02:58:45;;;;;;;30.20;25.80;;;13.50;99.90;;;;;;5434960;26;20358;-83
2024/04/12 03:01:14;;;;;;;31.63;27.73;;;13.50;99.90;;;;;;5394377;26;19999;-84
2024/04/12 03:03:47;;;;;;;31.80;27.00;;;13.50;99.90;;;;;;5397554;26;20675;-83
2024/04/12 03:06:22;;;;;;;34.00;27.77;;;13.50;99.90;;;;;;5417068;26;20021;-84
2024/04/12 03:08:51;;;;;;;34.03;29.25;;;13.50;99.90;;;;;;5436457;26;20043;-83
2024/04/12 03:11:22;;;;;;;35.97;29.70;;;13.50;99.90;;;;;;5394907;26;19999;-84
2024/04/12 03:13:54;;;;;;;34.30;29.98;;;13.50;99.90;;;;;;5422330;26;20031;-83
2024/04/12 03:16:21;;;;;;;34.15;29.42;;;13.50;99.90;;;;;;5421198;26;20022;-83
2024/04/12 03:18:52;;;;;;;30.42;27.13;;;13.50;99.90;;;;;;5418071;26;20014;-83
2024/04/12 03:21:30;;;;;;;29.92;26.65;;;13.50;99.90;;;;;;5425012;26;20628;-86
2024/04/12 03:23:57;;;;;;;29.02;24.23;;;13.50;99.90;;;;;;5424570;26;20051;-85
2024/04/12 03:26:25;;;;;;;28.77;24.95;;;13.50;99.90;;;;;;5432670;26;20030;-84
2024/04/12 03:28:56;;;;;;;27.05;23.20;;;13.50;99.90;;;;;;5399008;26;20003;-86
2024/04/12 03:31:27;;;;;;;25.33;22.55;;;13.50;99.90;;;;;;5430568;26;20018;-83
2024/04/12 03:33:55;;;;;;;25.08;22.38;;;13.50;99.90;;;;;;5420021;26;20015;-84
2024/04/12 03:39:24;;;;;;;25.17;22.08;;;13.50;99.90;;;;;;5426142;26;20068;-86
2024/04/12 03:42:03;;;;;;;26.05;22.33;;;13.50;99.90;;;;;;5425024;26;20386;-83
2024/04/12 03:44:31;;;;;;;25.20;22.15;;;13.50;99.90;;;;;;5411475;26;20492;-84
2024/04/12 03:47:07;;;;;;;26.40;21.77;;;13.50;99.90;;;;;;5432413;26;20417;-84
2024/04/12 03:49:39;;;;;;;25.95;23.15;;;13.50;99.90;;;;;;5319182;26;20007;-84
2024/04/12 03:52:13;;;;;;;26.80;22.40;;;13.50;99.90;;;;;;5398264;26;19998;-83
2024/04/12 03:54:41;;;;;;;28.52;25.45;;;13.50;99.90;;;;;;5394252;26;20013;-83
2024/04/12 03:57:09;;;;;;;28.90;25.20;;;13.50;99.90;;;;;;5422264;26;19999;-84
2024/04/12 03:59:38;;;;;;;27.88;24.88;;;13.50;99.90;;;;;;5359685;26;20007;-83
2024/04/12 04:02:08;;;;;;;26.55;23.70;;;13.50;99.90;;;;;;5429636;26;20021;-85
2024/04/12 04:04:37;;;;;;;25.30;22.60;;;13.50;99.90;;;;;;5420811;26;20003;-84
2024/04/12 04:07:10;;;;;;;25.40;22.73;;;13.50;99.90;;;;;;5405244;26;20007;-85
2024/04/12 04:09:38;;;;;;;23.77;21.27;;;13.50;99.90;;;;;;5445461;26;20036;-84
2024/04/12 04:12:05;;;;;;;23.05;20.40;;;13.50;99.90;;;;;;5409853;26;20352;-83
2024/04/12 04:14:33;;;;;;;25.58;22.77;;;13.50;99.90;;;;;;5436459;26;20013;-83
2024/04/12 04:17:01;;;;;;;26.50;23.77;;;13.50;99.90;;;;;;5399655;26;20005;-84
2024/04/12 04:19:39;;;;;;;27.80;24.80;;;13.50;99.90;;;;;;5426823;26;20393;-84
2024/04/12 04:24:54;;;;;;;26.88;22.50;;;13.50;99.90;;;;;;5436909;26;20009;-84
2024/04/12 04:27:23;;;;;;;24.88;22.23;;;13.50;99.90;;;;;;5442444;26;20046;-84
2024/04/12 04:29:56;;;;;;;23.83;21.33;;;13.50;99.90;;;;;;5408922;26;20341;-83
2024/04/12 04:32:26;;;;;;;23.88;20.58;;;13.40;99.90;;;;;;5441761;26;20021;-83
2024/04/12 04:35:06;;;;;;;19.98;17.80;;;13.40;99.90;;;;;;5429419;26;20026;-84
2024/04/12 04:37:39;;;;;;;20.85;16.90;;;13.50;99.90;;;;;;5439291;26;20040;-83
2024/04/12 04:40:11;;;;;;;17.88;15.98;;;13.40;99.90;;;;;;5436660;26;20003;-84
2024/04/12 04:42:39;;;;;;;19.15;15.95;;;13.40;99.90;;;;;;5442347;26;20009;-84
2024/04/12 04:45:08;;;;;;;19.42;15.50;;;13.40;99.90;;;;;;5409152;26;20019;-83
2024/04/12 04:47:39;;;;;;;17.58;15.38;;;13.40;99.90;;;;;;5401081;26;20329;-83
2024/04/12 04:50:10;;;;;;;17.13;14.27;;;13.30;99.90;;;;;;5410653;26;20021;-83
2024/04/12 04:52:38;;;;;;;17.30;15.20;;;13.40;99.90;;;;;;5434061;26;20034;-83
2024/04/12 04:55:11;;;;;;;15.75;14.05;;;13.30;99.90;;;;;;5439880;26;20011;-84
2024/04/12 04:57:54;;;;;;;15.25;13.55;;;13.30;99.90;;;;;;5407953;26;20990;-84
2024/04/12 05:00:40;;;;;;;17.02;14.65;;;13.30;99.90;;;;;;5438151;26;20832;-82
2024/04/12 05:03:07;;;;;;;18.58;16.15;;;13.30;99.90;;;;;;5390214;26;20021;-83
2024/04/12 05:05:38;;;;;;;19.67;17.58;;;13.30;99.90;;;;;;5389549;26;20011;-82
2024/04/12 05:08:08;;;;;;;22.10;17.23;;;13.30;99.90;;;;;;5391234;26;20483;-84
2024/04/12 05:10:35;;;;;;;21.42;17.20;;;13.30;99.90;;;;;;5391816;26;20013;-83
2024/04/12 05:13:05;;;;;;;20.70;17.00;;;13.20;99.90;;;;;;5417836;26;20467;-83
2024/04/12 05:18:12;;;;;;;22.15;16.67;;;13.20;99.90;;;;;;5421376;26;20005;-83
2024/04/12 05:20:40;;;;;;;21.25;16.55;;;13.20;99.90;;;;;;5398943;26;20474;-83
2024/04/12 05:23:12;;;;;;;22.92;17.27;;;13.20;99.90;;;;;;5385430;26;20007;-83
2024/04/12 05:25:40;;;;;;;21.33;17.02;;;13.20;99.90;;;;;;5418773;26;20009;-82
2024/04/12 05:28:07;;;;;;;20.77;16.85;;;13.20;99.90;;;;;;5391549;26;20756;-83
2024/04/12 05:30:40;;;;;;;22.42;17.48;;;13.20;99.90;;;;;;5394830;26;20007;-83
2024/04/12 05:33:10;;;;;;;23.50;17.75;;;13.20;99.90;;;;;;5386687;26;19999;-84
2024/04/12 05:35:37;;;;;;;21.57;16.07;;;13.20;99.90;;;;;;5419299;26;19998;-82
2024/04/12 05:38:07;;;;;;;20.50;15.90;;;13.20;99.90;;;;;;5421892;26;20035;-82
2024/04/12 05:40:41;;;;;;;21.75;16.08;;;13.20;99.90;;;;;;5391481;26;20009;-83
2024/04/12 05:43:13;;;;;;;23.88;16.42;;;13.10;99.90;;;;;;5385286;26;19995;-83
2024/04/12 05:45:47;;;;;;;20.92;15.70;;;13.10;99.90;;;;;;5410706;26;20003;-80
2024/04/12 05:48:21;;;;;;;21.08;16.30;;;13.10;99.90;;;;;;5395387;26;20015;-81
2024/04/12 05:50:49;;;;;;;24.38;15.38;;;13.20;99.90;;;;;;5429617;26;20345;-81
2024/04/12 05:53:19;;;;;;;19.90;14.77;;;13.10;99.90;;;;;;5389640;26;20000;-81
2024/04/12 05:55:51;;;;;;;20.25;14.43;;;13.10;99.90;;;;;;5415978;26;19999;-81
2024/04/12 05:58:23;;;;;;;20.02;14.88;;;13.10;99.90;;;;;;5424897;26;20003;-79
2024/04/12 06:00:50;;;;;;;19.42;14.07;;;13.10;99.90;;;;;;5379099;26;19999;-80
2024/04/12 06:03:17;;;;;;;20.63;15.10;;;13.10;99.90;;;;;;5422018;26;20031;-81
2024/04/12 06:05:55;;;;;;;19.65;14.80;;;13.20;99.90;;;;;;5430915;26;20007;-80
2024/04/12 06:08:23;;;;;;;19.23;14.65;;;13.10;99.90;;;;;;5437017;26;20454;-82
2024/04/12 06:10:51;;;;;;;19.20;14.18;;;13.10;99.90;;;;;;5428142;26;20014;-81
2024/04/12 06:13:23;;;;;;;19.23;14.38;;;13.20;99.90;;;;;;5392388;26;19999;-88
2024/04/12 06:15:50;;;;;;;19.35;14.68;;;13.20;99.90;;;;;;5397637;26;20007;-80
2024/04/12 06:18:21;;;;;;;20.02;13.98;;;13.20;99.90;;;;;;5427957;26;19999;-80
2024/04/12 06:20:48;;;;;;;19.55;15.05;;;13.20;99.90;;;;;;5428523;26;20013;-81
2024/04/12 06:23:19;;;;;;;17.60;14.52;;;13.20;99.90;;;;;;5390491;26;20010;-79
2024/04/12 06:25:49;;;;;;;19.42;14.05;;;13.20;99.90;;;;;;5398335;26;20017;-80
2024/04/12 06:28:19;;;;;;;;;;;13.30;99.90;;;;;;5396925;26;20340;-80
2024/04/12 06:30:48;;;;;;;19.92;15.05;;;13.20;99.90;;;;;;5410355;26;19924;-79
2024/04/12 06:33:22;;;;;;;18.35;14.85;;;13.20;99.90;;;;;;5388842;26;20007;-81
2024/04/12 06:35:53;;;;;;;18.10;13.55;;;13.30;99.90;;;;;;5394949;26;20454;-80
2024/04/12 06:38:22;;;;;;;17.83;14.27;;;13.20;99.90;;;;;;5397086;26;20000;-80
2024/04/12 06:40:55;;;;;;;21.55;15.68;;;13.30;99.90;;;;;;5402127;26;20021;-81
2024/04/12 06:43:22;;;;;;;20.42;15.77;;;13.30;99.90;;;;;;5429687;26;20010;-80
2024/04/12 06:46:00;;;;;;;19.27;15.32;;;13.30;99.90;;;;;;5393753;26;20003;-81
2024/04/12 06:48:27;;;;;;;17.33;14.15;;;13.30;99.90;;;;;;5431046;26;19999;-80
2024/04/12 06:50:55;;;;;;;19.02;15.30;;;13.40;99.90;;;;;;5429516;26;20007;-80
2024/04/12 06:53:23;;;;;;;18.83;15.15;;;13.40;99.90;;;;;;5430038;26;20035;-80
2024/04/12 06:55:57;;;;;;;18.30;15.93;;;13.40;99.90;;;;;;5436911;26;20021;-81
2024/04/12 06:58:25;;;;;;;19.35;15.15;;;13.50;99.90;;;;;;5391477;26;20348;-81
2024/04/12 07:00:56;;;;;;;19.02;15.15;;;13.50;99.90;;;;;;5395850;26;19998;-81
2024/04/12 07:03:24;;;;;;;17.58;14.95;;;13.60;99.90;;;;;;5387593;26;20030;-81
2024/04/12 07:05:54;;;;;;;15.65;13.82;;;13.70;99.90;;;;;;5395097;26;20520;-80
2024/04/12 07:08:22;;;;;;;16.95;15.13;;;13.70;99.90;;;;;;5397037;26;19995;-81
2024/04/12 07:10:49;;;;;;;17.88;15.20;;;13.80;99.90;;;;;;5397033;26;20022;-80
2024/04/12 07:13:27;;;;;;;15.98;14.27;;;13.90;99.90;;;;;;5393943;26;19995;-80
2024/04/12 07:15:55;;;;;;;16.17;14.20;;;13.90;99.90;;;;;;5436447;26;20352;-80
2024/04/12 07:18:23;;;;;;;16.45;14.30;;;13.90;99.90;;;;;;5398971;26;20013;-81
2024/04/12 07:20:50;;;;;;;16.70;14.82;;;14.00;99.90;;;;;;5388452;26;20013;-81
2024/04/12 07:23:20;;;;;;;16.33;14.57;;;14.00;99.90;;;;;;5428980;26;20018;-80
2024/04/12 07:25:47;;;;;;;15.82;13.57;;;14.00;99.90;;;;;;5396954;26;19998;-80
2024/04/12 07:28:14;;;;;;;17.38;13.73;;;14.00;99.90;;;;;;5434930;26;20042;-80
2024/04/12 07:30:44;;;;;;;15.02;13.45;;;14.10;99.90;;;;;;5419539;26;20009;-80
2024/04/12 07:33:14;;;;;;;17.98;13.80;;;14.10;99.90;;;;;;5392345;26;20470;-80
2024/04/12 07:35:48;;;;;;;;;;;14.20;99.90;;;;;;5420239;26;20006;-82
2024/04/12 07:38:15;;;;;;;14.38;12.88;;;14.20;99.90;;;;;;5435839;26;19931;-80
2024/04/12 07:40:46;;;;;;;14.23;12.75;;;14.30;99.90;;;;;;5423591;26;20021;-80
2024/04/12 07:43:13;;;;;;;14.23;12.82;;;14.40;99.90;;;;;;5400986;26;20245;-80
2024/04/12 07:45:41;;;;;;;14.05;12.55;;;14.50;99.90;;;;;;5394647;26;20021;-81
2024/04/12 07:50:48;;;;;;;12.80;11.13;;;14.60;99.90;;;;;;5421932;26;20400;-81
2024/04/12 07:53:21;;;;;;;11.95;10.75;;;14.60;99.90;;;;;;5434012;26;20017;-82
2024/04/12 07:56:08;;;;;;;11.45;10.25;;;14.60;99.90;;;;;;5434385;26;20013;-81
2024/04/12 07:58:36;;;;;;;10.95;9.85;;;14.60;99.90;;;;;;5390227;26;20007;-80
2024/04/12 08:01:18;;;;;;;10.57;9.15;;;14.60;99.90;;;;;;5400069;26;20002;-80
2024/04/12 08:03:56;;;;;;;11.55;9.82;;;14.60;99.90;;;;;;5418465;26;20605;-82
2024/04/12 08:09:34;;;;;;;10.90;8.70;;;14.70;99.90;;;;;;5298641;26;20001;-80
2024/04/12 08:12:14;;;;;;;9.00;7.93;;;14.80;99.90;;;;;;5285414;26;20002;-81
2024/04/12 08:15:06;;;;;;;11.57;8.35;;;14.80;99.90;;;;;;5352468;26;20013;-82
2024/04/12 08:17:39;;;;;;;9.63;8.27;;;14.90;99.90;;;;;;5406937;26;20353;-81
2024/04/12 08:20:13;;;;;;;9.05;7.75;;;15.00;99.90;;;;;;5438041;26;20340;-81
2024/04/12 08:22:43;;;;;;;8.63;7.40;;;15.00;99.90;;;;;;5404053;26;20021;-80
2024/04/12 08:25:10;;;;;;;10.70;7.50;;;15.00;99.90;;;;;;5405499;26;20011;-81
2024/04/12 08:27:37;;;;;;;8.85;7.07;;;15.00;99.90;;;;;;5430484;26;20014;-80
2024/04/12 08:30:13;;;;;;;8.63;6.90;;;15.00;99.90;;;;;;5402078;26;20014;-81
2024/04/12 08:32:48;;;;;;;11.15;8.10;;;15.10;99.90;;;;;;5385589;26;20004;-81
2024/04/12 08:35:19;;;;;;;9.32;7.43;;;15.10;99.90;;;;;;5404754;26;20461;-80
2024/04/12 08:37:53;;;;;;;9.75;7.65;;;15.20;99.90;;;;;;5434392;26;20031;-82
2024/04/12 08:40:21;;;;;;;10.90;7.93;;;15.20;99.90;;;;;;5422613;26;20007;-81
2024/04/12 08:42:49;;;;;;;9.73;7.47;;;15.40;99.90;;;;;;5396985;26;20007;-80
2024/04/12 08:45:22;;;;;;;10.50;8.00;;;15.50;99.90;;;;;;5410282;26;20355;-81
2024/04/12 08:48:01;;;;;;;11.07;8.73;;;15.60;99.90;;;;;;5422722;26;20010;-81
2024/04/12 08:50:33;;;;;;;11.43;8.40;;;15.70;99.90;;;;;;5397116;26;20031;-80
2024/04/12 08:53:11;;;;;;;13.85;9.02;;;15.90;99.90;;;;;;5405700;26;20372;-81
2024/04/12 08:55:43;;;;;;;12.02;8.55;;;16.00;99.90;;;;;;5426808;26;20334;-80
2024/04/12 08:58:10;;;;;;;11.52;8.65;;;16.20;99.90;;;;;;5407373;26;20010;-81
2024/04/12 09:00:39;;;;;;;10.25;7.65;;;16.30;99.90;;;;;;5411713;26;19999;-81
2024/04/12 09:03:24;;;;;;;12.15;8.13;;;16.40;99.90;;;;;;5410316;26;20006;-80
2024/04/12 09:05:55;;;;;;;9.70;7.78;;;16.60;99.90;;;;;;5401148;26;20007;-80
2024/04/12 09:08:28;;;;;;;12.10;8.02;;;16.80;99.90;;;;;;5443314;26;20034;-82
2024/04/12 09:11:05;;;;;;;10.55;7.95;;;16.90;99.90;;;;;;5436402;26;20095;-81
2024/04/12 09:13:34;;;;;;;10.60;7.68;;;17.00;99.90;;;;;;5400332;26;20479;-80
2024/04/12 09:16:07;;;;;;;13.38;8.77;;;17.00;99.90;;;;;;5437563;26;20028;-80
2024/04/12 09:18:44;;;;;;;11.30;8.15;;;17.10;99.90;;;;;;5441923;26;20039;-82
2024/04/12 09:21:23;;;;;;;9.80;7.40;;;17.00;99.90;;;;;;5435191;26;20002;-79
2024/04/12 09:23:51;;;;;;;13.05;6.78;;;17.10;99.90;;;;;;5422751;26;20060;-81
2024/04/12 09:26:24;;;;;;;10.43;6.60;;;17.10;99.90;;;;;;5436339;26;20035;-81
2024/04/12 09:29:09;;;;;;;8.63;6.05;;;17.10;99.90;;;;;;5403113;26;19996;-80
2024/04/12 09:32:50;;;;;;;8.35;5.68;;;17.00;99.90;;;;;;5445063;26;20023;-80
2024/04/12 09:34:55;;;;;;;8.45;6.00;;;17.00;99.90;;;;;;5426892;26;20047;-81
2024/04/12 09:37:43;;;;;;;8.30;5.57;;;16.90;99.90;;;;;;5405822;26;20007;-80
2024/04/12 09:45:28;;;;;;;8.02;5.63;;;17.00;99.90;;;;;;5432003;26;20037;-80
2024/04/12 10:39:45;;;;;;;10.00;4.85;;;18.40;99.90;;;;;;5416095;26;20036;-83
2024/04/12 10:42:13;;;;;;;7.50;4.90;;;18.50;99.90;;;;;;5395141;26;20009;-82
2024/04/12 10:44:49;;;;;;;6.45;4.35;;;18.50;99.90;;;;;;5419968;26;20926;-82
2024/04/12 10:47:20;;;;;;;6.75;4.05;;;18.50;99.90;;;;;;5430610;26;20043;-83
2024/04/12 10:49:49;;;;;;;7.25;3.28;;;18.60;99.90;;;;;;5394282;26;20021;-83
2024/04/12 10:52:28;;;;;;;6.47;3.92;;;18.70;99.90;;;;;;5426056;26;20031;-81
2024/04/12 10:55:00;;;;;;;7.10;3.15;;;18.70;99.90;;;;;;5403558;26;20014;-80
2024/04/12 10:57:30;;;;;;;6.18;2.72;;;18.80;99.90;;;;;;5436555;26;20207;-82
2024/04/12 11:00:00;;;;;;;;;;;18.90;99.90;;;;;;5400727;26;20714;-81
2024/04/12 11:02:29;;;;;;;4.70;2.28;;;18.80;99.90;;;;;;5394210;26;20267;-81
2024/04/12 11:05:24;;;;;;;6.38;2.67;;;18.80;99.90;;;;;;5423706;26;20031;-78
2024/04/12 11:07:53;;;;;;;5.57;2.20;;;18.70;99.90;;;;;;5423062;26;20023;-82
2024/04/12 11:10:37;;;;;;;4.38;2.22;;;18.60;99.90;;;;;;5400632;26;20013;-83
2024/04/12 11:13:07;;;;;;;5.78;2.25;;;18.50;99.90;;;;;;5423704;26;20031;-82
2024/04/12 11:32:06;;;;;;;5.60;2.08;;;19.30;99.90;;;;;;5412074;26;21484;-82
2024/04/12 11:34:33;;;;;;;7.03;2.17;;;19.30;99.90;;;;;;5396923;26;22740;-83
2024/04/12 11:37:05;;;;;;;5.90;2.10;;;19.30;99.90;;;;;;5401871;26;20640;-81
2024/04/12 11:39:38;;;;;;;5.30;1.70;;;19.30;99.90;;;;;;5399107;26;20013;-81
2024/04/12 11:42:06;;;;;;;4.70;1.85;;;19.40;99.90;;;;;;5429235;26;20000;-83
2024/04/12 11:44:34;;;;;;;4.55;1.58;;;19.40;99.90;;;;;;5431545;26;20446;-81
2024/04/12 11:47:05;;;;;;;3.78;1.70;;;19.40;99.90;;;;;;5395379;26;20013;-80
2024/04/12 11:49:45;;;;;;;4.13;1.45;;;19.40;99.90;;;;;;5421992;26;20003;-80
2024/04/12 11:52:16;;;;;;;5.30;1.50;;;19.40;99.90;;;;;;5388185;26;20015;-81
2024/04/12 11:54:51;;;;;;;4.18;1.63;;;19.30;99.40;;;;;;5425145;26;20482;-82
2024/04/12 11:57:22;;;;;;;6.65;1.65;;;19.40;99.90;;;;;;5422308;26;20031;-81
2024/04/12 12:00:00;;;;;;;4.93;1.13;;;19.30;97.20;;;;;;5385071;26;20464;-78
2024/04/12 12:02:28;;;;;;;5.82;1.08;;;19.30;94.90;;;;;;5422844;26;20010;-78
2024/04/12 12:04:57;;;;;;;4.45;1.00;;;19.30;90.60;;;;;;5426397;26;20009;-79
2024/04/12 12:07:27;;;;;;;7.57;1.98;;;19.30;90.90;;;;;;5423438;26;20003;-79
2024/04/12 12:09:57;;;;;;;;;;;19.30;91.30;;;;;;5431109;26;20010;-80
2024/04/12 12:12:26;;;;;;;5.65;1.52;;;19.20;92.10;;;;;;5432046;26;19932;-81
2024/04/12 12:14:54;;;;;;;3.33;1.23;;;19.20;91.80;;;;;;5392967;26;20473;-82
2024/04/12 12:17:21;;;;;;;3.80;1.20;;;19.30;93.20;;;;;;5422193;26;20057;-82
2024/04/12 12:19:52;;;;;;;4.50;1.27;;;19.40;92.60;;;;;;5416222;26;20031;-82
2024/04/12 12:22:19;;;;;;;5.35;1.25;;;19.50;90.20;;;;;;5401497;26;20007;-82
2024/04/12 12:24:49;;;;;;;4.80;1.50;;;19.40;90.50;;;;;;5389572;26;20009;-82
2024/04/12 12:27:21;;;;;;;4.55;1.55;;;19.40;90.80;;;;;;5429106;26;20872;-83
2024/04/12 12:29:51;;;;;;;4.63;1.52;;;19.50;91.20;;;;;;5429070;26;20010;-80
2024/04/12 12:32:19;;;;;;;9.30;2.05;;;19.40;88.80;;;;;;5430791;26;20006;-80
2024/04/12 12:34:47;;;;;;;5.32;2.17;;;19.30;89.90;;;;;;5382896;26;19999;-83
2024/04/12 12:37:15;;;;;;;4.70;1.60;;;19.30;89.60;;;;;;5382617;26;20014;-81
2024/04/12 12:39:43;;;;;;;4.88;1.85;;;19.30;90.30;;;;;;5391848;26;20003;-81
2024/04/12 12:42:12;;;;;;;6.53;2.17;;;19.30;91.70;;;;;;5403879;26;20005;-82
2024/04/12 12:44:39;;;;;;;7.63;2.38;;;19.30;92.70;;;;;;5428512;26;20535;-82
2024/04/12 12:47:06;;;;;;;7.15;2.50;;;19.30;92.70;;;;;;5385130;26;20470;-83
2024/04/12 12:49:46;;;;;;;5.15;1.80;;;19.40;93.50;;;;;;5424968;26;20007;-83
2024/04/12 12:52:14;;;;;;;6.05;2.13;;;19.50;93.50;;;;;;5397547;26;19999;-82
2024/04/12 12:54:42;;;;;;;7.53;2.67;;;19.60;93.70;;;;;;5415405;26;20009;-83
2024/04/12 12:57:14;;;;;;;6.15;1.98;;;19.60;93.30;;;;;;5395444;26;20454;-82
2024/04/12 12:59:46;;;;;;;4.85;1.60;;;19.60;92.50;;;;;;5423289;26;20509;-84
2024/04/12 13:02:16;;;;;;;6.13;1.45;;;19.60;92.60;;;;;;5399452;26;20010;-82
2024/04/12 13:04:46;;;;;;;5.93;1.70;;;19.60;91.50;;;;;;5410413;26;19995;-81
2024/04/12 13:07:16;;;;;;;6.60;1.85;;;19.60;90.00;;;;;;5380314;26;20017;-83
2024/04/12 13:09:43;;;;;;;;;;;19.60;88.20;;;;;;5414582;26;20732;-83
2024/04/12 13:12:10;;;;;;;6.32;1.55;;;19.50;90.10;;;;;;5394152;26;19931;-84
2024/04/12 13:14:39;;;;;;;7.28;1.70;;;19.50;90.10;;;;;;5427137;26;20026;-85
2024/04/12 13:17:14;;;;;;;6.95;1.60;;;19.50;87.80;;;;;;5392172;26;20338;-82
2024/04/12 13:19:42;;;;;;;7.13;2.05;;;19.50;84.80;;;;;;5398545;26;20767;-84
2024/04/12 13:22:14;;;;;;;5.25;1.58;;;19.40;85.00;;;;;;5423208;26;20027;-81
2024/04/12 13:24:43;;;;;;;6.05;1.65;;;19.30;86.00;;;;;;5417961;26;20008;-83
2024/04/12 13:27:14;;;;;;;4.38;1.60;;;19.30;89.40;;;;;;5425286;26;20042;-83
2024/04/12 13:29:41;;;;;;;8.77;2.00;;;19.30;88.50;;;;;;5427489;26;20002;-83
2024/04/12 13:32:11;;;;;;;4.72;1.63;;;19.30;86.40;;;;;;5403069;26;20022;-83
2024/04/12 13:34:38;;;;;;;7.07;1.60;;;19.30;87.60;;;;;;5419897;26;19998;-85
2024/04/12 13:37:06;;;;;;;3.58;1.48;;;19.30;85.00;;;;;;5400146;26;19999;-83
2024/04/12 13:39:36;;;;;;;5.60;2.03;;;19.30;85.50;;;;;;5432879;26;20018;-84
2024/04/12 13:42:10;;;;;;;6.13;2.00;;;19.30;86.40;;;;;;5394385;26;20357;-84
2024/04/12 13:52:56;;;;;;;4.68;1.40;;;19.40;86.10;;;;;;5422693;26;20467;-81
2024/04/12 13:55:24;;;;;;;5.78;1.70;;;19.40;83.50;;;;;;5435447;26;20042;-82
2024/04/12 13:57:52;;;;;;;5.25;1.60;;;19.40;85.10;;;;;;5392071;26;20011;-83
2024/04/12 14:00:28;;;;;;;5.85;1.70;;;19.40;87.60;;;;;;5391504;26;20462;-84
2024/04/12 14:02:58;;;;;;;6.63;1.80;;;19.50;90.00;;;;;;5386108;26;20003;-82
2024/04/12 14:05:33;;;;;;;6.45;2.20;;;19.50;90.00;;;;;;5409225;26;20781;-81
2024/04/12 14:08:07;;;;;;;6.32;2.20;;;19.50;88.20;;;;;;5426858;26;20564;-80
2024/04/12 14:10:35;;;;;;;5.38;2.20;;;19.40;85.80;;;;;;5429006;26;20365;-81
2024/04/12 14:13:05;;;;;;;6.72;2.13;;;19.30;86.30;;;;;;5397219;26;20022;-80
2024/04/12 14:15:36;;;;;;;6.32;1.90;;;19.20;87.00;;;;;;5424846;26;20004;-82
2024/04/12 14:18:07;;;;;;;10.05;2.35;;;19.10;90.10;;;;;;5436011;26;20027;-83
2024/04/12 14:20:34;;;;;;;5.68;1.75;;;19.10;90.60;;;;;;5407995;26;20002;-84
2024/04/12 14:23:01;;;;;;;4.68;1.77;;;19.20;91.30;;;;;;5401568;26;20461;-84
2024/04/12 14:25:28;;;;;;;4.95;1.80;;;19.20;91.90;;;;;;5412116;26;20502;-84
2024/04/12 14:27:55;;;;;;;5.00;1.77;;;19.30;92.30;;;;;;5393441;26;20008;-84
2024/04/12 14:30:22;;;;;;;6.38;1.77;;;19.30;93.00;;;;;;5388002;26;20017;-82
2024/04/12 14:32:51;;;;;;;6.35;2.08;;;19.30;92.70;;;;;;5436499;26;20030;-81